sensor_id;sensor_type;location;lat;lon;timestamp;pressure;altitude;pressure_sealevel;temperature;humidity
51081;BME280;37130;55.670;37.596;2023-06-14T06:36:04;99912.50;;;32.87;21.34
51081;BME280;37130;55.670;37.596;2023-06-14T06:38:32;99910.81;;;33.26;20.69
51081;BME280;37130;55.670;37.596;2023-06-14T06:41:00;99926.78;;;33.82;20.35
51081;BME280;37130;55.670;37.596;2023-06-14T06:43:27;99927.72;;;34.08;20.26
51081;BME280;37130;55.670;37.596;2023-06-14T06:45:57;99920.88;;;33.72;19.83
51081;BME280;37130;55.670;37.596;2023-06-14T06:48:24;99906.72;;;33.69;19.80
51081;BME280;37130;55.670;37.596;2023-06-14T06:50:52;99912.69;;;33.59;19.78
51081;BME280;37130;55.670;37.596;2023-06-14T06:53:19;99901.63;;;33.79;19.35
51081;BME280;37130;55.670;37.596;2023-06-14T06:56:04;99911.28;;;33.10;21.06
51081;BME280;37130;55.670;37.596;2023-06-14T06:58:32;99915.03;;;33.35;19.51
51081;BME280;37130;55.670;37.596;2023-06-14T07:01:00;99906.41;;;33.12;19.16
51081;BME280;37130;55.670;37.596;2023-06-14T07:03:28;99910.56;;;33.48;19.08
51081;BME280;37130;55.670;37.596;2023-06-14T07:05:56;99903.44;;;32.93;19.29
51081;BME280;37130;55.670;37.596;2023-06-14T07:08:23;99901.88;;;32.44;19.46
51081;BME280;37130;55.670;37.596;2023-06-14T07:10:51;99916.50;;;32.51;19.82
51081;BME280;37130;55.670;37.596;2023-06-14T07:13:18;99911.28;;;33.10;19.52
51081;BME280;37130;55.670;37.596;2023-06-14T07:15:46;99902.59;;;32.86;19.21
51081;BME280;37130;55.670;37.596;2023-06-14T07:18:14;99896.91;;;33.01;19.75
51081;BME280;37130;55.670;37.596;2023-06-14T07:20:42;99894.13;;;33.21;19.63
51081;BME280;37130;55.670;37.596;2023-06-14T07:23:10;99897.09;;;32.86;18.94
51081;BME280;37130;55.670;37.596;2023-06-14T07:25:37;99904.34;;;32.13;20.07
51081;BME280;37130;55.670;37.596;2023-06-14T07:28:05;99896.88;;;32.55;19.37
51081;BME280;37130;55.670;37.596;2023-06-14T07:30:32;99891.41;;;33.14;19.52
51081;BME280;37130;55.670;37.596;2023-06-14T07:33:00;99905.28;;;33.46;19.39
51081;BME280;37130;55.670;37.596;2023-06-14T07:35:27;99902.97;;;33.43;19.22
51081;BME280;37130;55.670;37.596;2023-06-14T07:37:55;99874.94;;;33.01;19.07
51081;BME280;37130;55.670;37.596;2023-06-14T07:40:22;99899.38;;;33.49;19.38
51081;BME280;37130;55.670;37.596;2023-06-14T07:42:50;99893.66;;;33.57;19.01
51081;BME280;37130;55.670;37.596;2023-06-14T07:45:18;99900.03;;;33.25;19.20
51081;BME280;37130;55.670;37.596;2023-06-14T07:47:46;99897.31;;;32.78;19.93
51081;BME280;37130;55.670;37.596;2023-06-14T07:50:14;99890.13;;;32.84;20.15
51081;BME280;37130;55.670;37.596;2023-06-14T07:52:41;99906.63;;;33.10;19.09
51081;BME280;37130;55.670;37.596;2023-06-14T07:55:09;99883.38;;;32.80;19.33
51081;BME280;37130;55.670;37.596;2023-06-14T07:57:36;99902.81;;;33.05;19.28
51081;BME280;37130;55.670;37.596;2023-06-14T08:00:04;99886.75;;;32.82;19.49
51081;BME280;37130;55.670;37.596;2023-06-14T08:02:44;99886.34;;;32.65;20.07
51081;BME280;37130;55.670;37.596;2023-06-14T08:05:12;99883.78;;;32.77;20.49
51081;BME280;37130;55.670;37.596;2023-06-14T08:07:40;99894.31;;;32.46;19.88
51081;BME280;37130;55.670;37.596;2023-06-14T08:10:08;99888.09;;;32.04;19.93
51081;BME280;37130;55.670;37.596;2023-06-14T08:12:36;99894.00;;;32.08;19.97
51081;BME280;37130;55.670;37.596;2023-06-14T08:15:04;99880.19;;;31.88;20.28
51081;BME280;37130;55.670;37.596;2023-06-14T08:17:41;99892.94;;;32.02;20.61
51081;BME280;37130;55.670;37.596;2023-06-14T08:20:09;99902.41;;;32.06;20.26
51081;BME280;37130;55.670;37.596;2023-06-14T08:22:38;99888.28;;;31.61;21.15
51081;BME280;37130;55.670;37.596;2023-06-14T08:25:07;99889.78;;;31.64;21.13
51081;BME280;37130;55.670;37.596;2023-06-14T08:27:34;99889.25;;;31.88;21.30
51081;BME280;37130;55.670;37.596;2023-06-14T08:30:03;99888.06;;;31.98;21.13
51081;BME280;37130;55.670;37.596;2023-06-14T08:32:30;99880.44;;;31.93;20.88
51081;BME280;37130;55.670;37.596;2023-06-14T08:34:58;99883.94;;;31.80;20.53
51081;BME280;37130;55.670;37.596;2023-06-14T08:37:31;99876.97;;;31.36;20.93
51081;BME280;37130;55.670;37.596;2023-06-14T08:40:02;99892.91;;;30.76;21.11
51081;BME280;37130;55.670;37.596;2023-06-14T08:42:33;99885.94;;;29.95;21.33
51081;BME280;37130;55.670;37.596;2023-06-14T08:45:01;99889.66;;;29.42;21.77
51081;BME280;37130;55.670;37.596;2023-06-14T08:47:30;99873.34;;;28.67;22.59
51081;BME280;37130;55.670;37.596;2023-06-14T08:50:08;99861.91;;;27.94;23.06
51081;BME280;37130;55.670;37.596;2023-06-14T08:52:58;99870.31;;;27.28;23.78
51081;BME280;37130;55.670;37.596;2023-06-14T08:55:31;99868.94;;;27.16;24.03
51081;BME280;37130;55.670;37.596;2023-06-14T08:58:04;99867.31;;;26.82;23.81
51081;BME280;37130;55.670;37.596;2023-06-14T09:00:32;99859.88;;;26.52;24.79
51081;BME280;37130;55.670;37.596;2023-06-14T09:03:00;99860.31;;;26.22;25.38
51081;BME280;37130;55.670;37.596;2023-06-14T09:05:28;99859.94;;;26.09;25.81
51081;BME280;37130;55.670;37.596;2023-06-14T09:07:56;99860.13;;;25.99;25.57
51081;BME280;37130;55.670;37.596;2023-06-14T09:10:32;99872.28;;;25.87;25.32
51081;BME280;37130;55.670;37.596;2023-06-14T09:13:05;99851.81;;;25.58;25.97
51081;BME280;37130;55.670;37.596;2023-06-14T09:15:34;99850.91;;;25.42;25.79
51081;BME280;37130;55.670;37.596;2023-06-14T09:18:02;99850.50;;;25.28;26.24
51081;BME280;37130;55.670;37.596;2023-06-14T09:20:31;99846.25;;;25.26;26.13
51081;BME280;37130;55.670;37.596;2023-06-14T09:23:01;99844.56;;;25.33;26.08
51081;BME280;37130;55.670;37.596;2023-06-14T09:25:28;99835.09;;;25.29;26.04
51081;BME280;37130;55.670;37.596;2023-06-14T09:28:09;99837.75;;;25.21;26.15
51081;BME280;37130;55.670;37.596;2023-06-14T09:30:38;99854.19;;;25.01;26.12
51081;BME280;37130;55.670;37.596;2023-06-14T09:33:05;99835.28;;;24.83;26.52
51081;BME280;37130;55.670;37.596;2023-06-14T09:35:33;99836.03;;;24.93;27.03
51081;BME280;37130;55.670;37.596;2023-06-14T09:38:01;99831.78;;;24.91;27.06
51081;BME280;37130;55.670;37.596;2023-06-14T09:40:33;99829.72;;;24.85;26.78
51081;BME280;37130;55.670;37.596;2023-06-14T09:43:04;99843.72;;;24.80;26.34
51081;BME280;37130;55.670;37.596;2023-06-14T09:45:33;99838.19;;;24.64;27.08
51081;BME280;37130;55.670;37.596;2023-06-14T09:48:01;99832.94;;;24.62;27.13
51081;BME280;37130;55.670;37.596;2023-06-14T09:50:34;99832.00;;;24.71;27.70
51081;BME280;37130;55.670;37.596;2023-06-14T09:53:06;99837.56;;;24.70;27.20
51081;BME280;37130;55.670;37.596;2023-06-14T09:55:36;99819.53;;;24.79;27.13
51081;BME280;37130;55.670;37.596;2023-06-14T09:58:06;99795.25;;;24.69;27.42
51081;BME280;37130;55.670;37.596;2023-06-14T10:00:35;99814.66;;;24.64;27.08
51081;BME280;37130;55.670;37.596;2023-06-14T10:03:14;99796.69;;;24.37;27.29
51081;BME280;37130;55.670;37.596;2023-06-14T10:05:45;99812.28;;;24.61;27.19
51081;BME280;37130;55.670;37.596;2023-06-14T10:08:16;99810.84;;;24.75;27.04
51081;BME280;37130;55.670;37.596;2023-06-14T10:10:45;99803.41;;;24.77;26.77
51081;BME280;37130;55.670;37.596;2023-06-14T10:13:13;99796.72;;;24.63;27.33
51081;BME280;37130;55.670;37.596;2023-06-14T10:18:23;99796.69;;;24.19;27.55
51081;BME280;37130;55.670;37.596;2023-06-14T10:21:01;99799.38;;;24.37;27.56
51081;BME280;37130;55.670;37.596;2023-06-14T10:23:40;99797.72;;;24.62;28.21
51081;BME280;37130;55.670;37.596;2023-06-14T10:26:18;99795.75;;;24.99;28.29
51081;BME280;37130;55.670;37.596;2023-06-14T10:28:57;99803.44;;;25.11;27.50
51081;BME280;37130;55.670;37.596;2023-06-14T10:31:46;99777.44;;;24.92;27.48
51081;BME280;37130;55.670;37.596;2023-06-14T10:34:27;99793.88;;;24.99;27.59
51081;BME280;37130;55.670;37.596;2023-06-14T10:37:06;99787.94;;;25.22;27.14
51081;BME280;37130;55.670;37.596;2023-06-14T10:39:44;99785.16;;;25.13;27.53
51081;BME280;37130;55.670;37.596;2023-06-14T10:42:15;99780.56;;;25.06;27.43
51081;BME280;37130;55.670;37.596;2023-06-14T10:44:49;99756.34;;;24.78;27.17
51081;BME280;37130;55.670;37.596;2023-06-14T10:47:25;99777.03;;;24.79;27.22
51081;BME280;37130;55.670;37.596;2023-06-14T10:50:05;99780.63;;;24.62;27.47
51081;BME280;37130;55.670;37.596;2023-06-14T10:52:36;99776.28;;;24.69;27.19
51081;BME280;37130;55.670;37.596;2023-06-14T10:55:12;99764.22;;;24.63;27.07
51081;BME280;37130;55.670;37.596;2023-06-14T10:57:46;99775.19;;;24.88;27.50
51081;BME280;37130;55.670;37.596;2023-06-14T11:00:23;99774.72;;;25.19;27.28
51081;BME280;37130;55.670;37.596;2023-06-14T11:05:49;99766.25;;;24.61;26.83
51081;BME280;37130;55.670;37.596;2023-06-14T11:08:22;99761.63;;;24.36;27.21
51081;BME280;37130;55.670;37.596;2023-06-14T11:10:58;99767.31;;;24.68;27.57
51081;BME280;37130;55.670;37.596;2023-06-14T11:13:26;99768.09;;;24.87;27.53
51081;BME280;37130;55.670;37.596;2023-06-14T11:15:57;99762.81;;;24.85;27.31
51081;BME280;37130;55.670;37.596;2023-06-14T11:18:25;99754.91;;;24.92;27.04
51081;BME280;37130;55.670;37.596;2023-06-14T11:20:54;99759.59;;;24.82;27.33
51081;BME280;37130;55.670;37.596;2023-06-14T11:23:22;99760.66;;;24.89;27.48
51081;BME280;37130;55.670;37.596;2023-06-14T11:25:52;99762.94;;;24.76;27.11
51081;BME280;37130;55.670;37.596;2023-06-14T11:28:20;99754.59;;;24.69;27.17
51081;BME280;37130;55.670;37.596;2023-06-14T11:30:59;99751.78;;;24.79;27.19
51081;BME280;37130;55.670;37.596;2023-06-14T11:33:27;99753.03;;;24.92;27.37
51081;BME280;37130;55.670;37.596;2023-06-14T11:35:55;99746.13;;;24.98;27.39
51081;BME280;37130;55.670;37.596;2023-06-14T11:38:22;99744.44;;;24.97;26.96
51081;BME280;37130;55.670;37.596;2023-06-14T11:40:49;99747.28;;;24.96;27.31
51081;BME280;37130;55.670;37.596;2023-06-14T11:43:17;99748.09;;;24.88;27.23
51081;BME280;37130;55.670;37.596;2023-06-14T11:45:48;99743.06;;;24.93;27.43
51081;BME280;37130;55.670;37.596;2023-06-14T11:48:40;99749.47;;;24.84;27.26
51081;BME280;37130;55.670;37.596;2023-06-14T11:51:09;99734.81;;;24.68;27.63
51081;BME280;37130;55.670;37.596;2023-06-14T11:53:36;99737.69;;;24.75;27.68
51081;BME280;37130;55.670;37.596;2023-06-14T11:56:04;99733.50;;;24.81;27.63
51081;BME280;37130;55.670;37.596;2023-06-14T11:58:32;99734.47;;;24.71;27.96
51081;BME280;37130;55.670;37.596;2023-06-14T12:01:00;99727.19;;;24.72;27.84
51081;BME280;37130;55.670;37.596;2023-06-14T12:03:30;99733.81;;;24.78;27.56
51081;BME280;37130;55.670;37.596;2023-06-14T12:06:05;99731.78;;;24.71;27.65
51081;BME280;37130;55.670;37.596;2023-06-14T12:08:34;99726.44;;;24.88;27.71
51081;BME280;37130;55.670;37.596;2023-06-14T12:11:07;99711.63;;;25.08;27.72
51081;BME280;37130;55.670;37.596;2023-06-14T12:13:41;99727.81;;;25.34;27.35
51081;BME280;37130;55.670;37.596;2023-06-14T12:16:10;99716.25;;;25.16;26.93
51081;BME280;37130;55.670;37.596;2023-06-14T12:18:39;99724.81;;;25.03;27.05
51081;BME280;37130;55.670;37.596;2023-06-14T12:21:07;99701.88;;;24.81;27.28
51081;BME280;37130;55.670;37.596;2023-06-14T12:23:46;99710.28;;;24.78;27.47
51081;BME280;37130;55.670;37.596;2023-06-14T12:28:44;99710.63;;;24.75;26.57
51081;BME280;37130;55.670;37.596;2023-06-14T12:31:12;99694.50;;;24.65;26.85
51081;BME280;37130;55.670;37.596;2023-06-14T12:33:41;99702.84;;;24.80;27.12
51081;BME280;37130;55.670;37.596;2023-06-14T12:36:09;99706.28;;;24.90;27.09
51081;BME280;37130;55.670;37.596;2023-06-14T12:38:37;99696.25;;;24.83;27.14
51081;BME280;37130;55.670;37.596;2023-06-14T12:41:05;99691.13;;;24.71;27.66
51081;BME280;37130;55.670;37.596;2023-06-14T12:43:33;99698.13;;;24.82;27.56
51081;BME280;37130;55.670;37.596;2023-06-14T12:46:01;99695.53;;;24.73;27.46
51081;BME280;37130;55.670;37.596;2023-06-14T12:48:28;99696.56;;;24.71;27.96
51081;BME280;37130;55.670;37.596;2023-06-14T12:50:58;99683.00;;;24.71;27.68
51081;BME280;37130;55.670;37.596;2023-06-14T12:53:26;99676.56;;;24.73;27.71
51081;BME280;37130;55.670;37.596;2023-06-14T12:55:53;99687.16;;;24.92;28.67
51081;BME280;37130;55.670;37.596;2023-06-14T12:58:21;99693.47;;;25.01;27.49
51081;BME280;37130;55.670;37.596;2023-06-14T13:00:50;99704.59;;;24.89;27.60
51081;BME280;37130;55.670;37.596;2023-06-14T13:03:18;99693.03;;;24.79;27.28
51081;BME280;37130;55.670;37.596;2023-06-14T13:05:46;99688.13;;;24.83;27.50
51081;BME280;37130;55.670;37.596;2023-06-14T13:08:13;99688.13;;;24.83;27.13
51081;BME280;37130;55.670;37.596;2023-06-14T13:10:40;99688.47;;;24.80;26.83
51081;BME280;37130;55.670;37.596;2023-06-14T13:13:08;99686.44;;;24.82;27.76
51081;BME280;37130;55.670;37.596;2023-06-14T13:15:35;99685.97;;;24.86;27.47
51081;BME280;37130;55.670;37.596;2023-06-14T13:18:03;99677.78;;;24.78;27.66
51081;BME280;37130;55.670;37.596;2023-06-14T13:20:30;99684.56;;;24.74;27.68
51081;BME280;37130;55.670;37.596;2023-06-14T13:22:59;99682.00;;;24.73;27.99
51081;BME280;37130;55.670;37.596;2023-06-14T13:25:27;99674.56;;;24.75;28.96
51081;BME280;37130;55.670;37.596;2023-06-14T13:27:54;99660.13;;;24.66;28.42
51081;BME280;37130;55.670;37.596;2023-06-14T13:30:21;99646.06;;;24.62;28.22
51081;BME280;37130;55.670;37.596;2023-06-14T13:32:49;99671.69;;;24.76;27.88
51081;BME280;37130;55.670;37.596;2023-06-14T13:35:19;99653.88;;;24.65;27.77
51081;BME280;37130;55.670;37.596;2023-06-14T13:37:46;99676.09;;;24.77;27.40
51081;BME280;37130;55.670;37.596;2023-06-14T13:40:14;99670.53;;;24.79;27.42
51081;BME280;37130;55.670;37.596;2023-06-14T13:42:43;99669.09;;;24.66;26.99
51081;BME280;37130;55.670;37.596;2023-06-14T13:45:11;99670.44;;;24.62;26.62
51081;BME280;37130;55.670;37.596;2023-06-14T13:47:39;99663.81;;;24.57;26.89
51081;BME280;37130;55.670;37.596;2023-06-14T13:50:07;99672.78;;;24.57;26.79
51081;BME280;37130;55.670;37.596;2023-06-14T13:52:35;99662.75;;;24.49;27.23
51081;BME280;37130;55.670;37.596;2023-06-14T13:55:02;99668.22;;;24.58;27.26
51081;BME280;37130;55.670;37.596;2023-06-14T13:57:30;99673.09;;;24.54;27.48
51081;BME280;37130;55.670;37.596;2023-06-14T13:59:58;99662.75;;;24.49;27.59
51081;BME280;37130;55.670;37.596;2023-06-14T14:02:38;99661.50;;;24.44;27.73
51081;BME280;37130;55.670;37.596;2023-06-14T14:05:08;99659.28;;;24.39;28.00
51081;BME280;37130;55.670;37.596;2023-06-14T14:07:36;99665.13;;;24.44;28.02
51081;BME280;37130;55.670;37.596;2023-06-14T14:10:04;99661.19;;;24.47;27.86
51081;BME280;37130;55.670;37.596;2023-06-14T14:12:31;99664.09;;;24.45;27.81
51081;BME280;37130;55.670;37.596;2023-06-14T14:14:59;99644.00;;;24.30;27.86
51081;BME280;37130;55.670;37.596;2023-06-14T14:17:26;99661.31;;;24.37;27.88
51081;BME280;37130;55.670;37.596;2023-06-14T14:19:54;99659.78;;;24.35;27.63
51081;BME280;37130;55.670;37.596;2023-06-14T14:22:21;99658.06;;;24.34;28.05
51081;BME280;37130;55.670;37.596;2023-06-14T14:24:49;99631.59;;;24.19;28.03
51081;BME280;37130;55.670;37.596;2023-06-14T14:27:16;99663.59;;;24.24;28.06
51081;BME280;37130;55.670;37.596;2023-06-14T14:29:43;99641.16;;;24.05;27.75
51081;BME280;37130;55.670;37.596;2023-06-14T14:32:11;99649.03;;;23.99;27.84
51081;BME280;37130;55.670;37.596;2023-06-14T14:34:41;99659.91;;;24.07;28.18
51081;BME280;37130;55.670;37.596;2023-06-14T14:37:08;99658.97;;;24.16;28.21
51081;BME280;37130;55.670;37.596;2023-06-14T14:39:36;99648.16;;;24.16;27.71
51081;BME280;37130;55.670;37.596;2023-06-14T14:42:04;99635.56;;;24.07;28.14
51081;BME280;37130;55.670;37.596;2023-06-14T14:44:48;99665.00;;;24.10;27.99
51081;BME280;37130;55.670;37.596;2023-06-14T14:47:16;99665.88;;;24.11;27.70
51081;BME280;37130;55.670;37.596;2023-06-14T14:49:44;99674.53;;;24.14;27.48
51081;BME280;37130;55.670;37.596;2023-06-14T14:52:11;99661.25;;;24.03;27.69
51081;BME280;37130;55.670;37.596;2023-06-14T14:54:50;99657.34;;;23.97;27.41
51081;BME280;37130;55.670;37.596;2023-06-14T14:57:17;99656.06;;;23.92;28.04
51081;BME280;37130;55.670;37.596;2023-06-14T14:59:45;99662.13;;;23.86;27.94
51081;BME280;37130;55.670;37.596;2023-06-14T15:02:12;99656.03;;;23.83;28.03
51081;BME280;37130;55.670;37.596;2023-06-14T15:04:39;99656.34;;;23.80;27.91
51081;BME280;37130;55.670;37.596;2023-06-14T15:07:07;99649.16;;;23.71;28.28
51081;BME280;37130;55.670;37.596;2023-06-14T15:09:34;99655.13;;;23.75;27.78
51081;BME280;37130;55.670;37.596;2023-06-14T15:12:02;99656.38;;;23.71;28.20
51081;BME280;37130;55.670;37.596;2023-06-14T15:14:30;99656.28;;;23.72;27.81
51081;BME280;37130;55.670;37.596;2023-06-14T15:16:57;99667.94;;;23.73;27.73
51081;BME280;37130;55.670;37.596;2023-06-14T15:19:25;99644.44;;;23.55;28.10
51081;BME280;37130;55.670;37.596;2023-06-14T15:21:53;99665.28;;;23.63;28.05
51081;BME280;37130;55.670;37.596;2023-06-14T15:24:20;99662.75;;;23.61;28.01
51081;BME280;37130;55.670;37.596;2023-06-14T15:27:04;99660.34;;;23.58;28.44
51081;BME280;37130;55.670;37.596;2023-06-14T15:29:31;99663.06;;;23.58;28.11
51081;BME280;37130;55.670;37.596;2023-06-14T15:32:00;99649.22;;;23.44;28.31
51081;BME280;37130;55.670;37.596;2023-06-14T15:34:28;99666.69;;;23.49;28.70
51081;BME280;37130;55.670;37.596;2023-06-14T15:36:55;99668.69;;;23.47;28.97
51081;BME280;37130;55.670;37.596;2023-06-14T15:39:23;99674.09;;;23.47;28.33
51081;BME280;37130;55.670;37.596;2023-06-14T15:41:51;99666.47;;;23.43;28.82
51081;BME280;37130;55.670;37.596;2023-06-14T15:44:19;99665.38;;;23.35;28.24
51081;BME280;37130;55.670;37.596;2023-06-14T15:46:46;99651.53;;;23.21;28.50
51081;BME280;37130;55.670;37.596;2023-06-14T15:49:17;99668.38;;;23.32;28.62
51081;BME280;37130;55.670;37.596;2023-06-14T15:51:45;99670.25;;;23.32;28.61
51081;BME280;37130;55.670;37.596;2023-06-14T15:54:12;99669.69;;;23.28;28.49
51081;BME280;37130;55.670;37.596;2023-06-14T15:56:40;99666.19;;;23.18;28.46
51081;BME280;37130;55.670;37.596;2023-06-14T15:59:07;99671.91;;;23.15;28.46
51081;BME280;37130;55.670;37.596;2023-06-14T16:01:35;99653.53;;;23.01;28.70
51081;BME280;37130;55.670;37.596;2023-06-14T16:04:03;99669.97;;;23.07;28.86
51081;BME280;37130;55.670;37.596;2023-06-14T16:06:32;99673.97;;;23.03;28.72
51081;BME280;37130;55.670;37.596;2023-06-14T16:08:59;99672.44;;;23.01;28.96
51081;BME280;37130;55.670;37.596;2023-06-14T16:11:26;99684.38;;;22.98;29.22
51081;BME280;37130;55.670;37.596;2023-06-14T16:13:54;99670.59;;;22.91;29.26
51081;BME280;37130;55.670;37.596;2023-06-14T16:16:22;99672.75;;;22.88;28.93
51081;BME280;37130;55.670;37.596;2023-06-14T16:18:50;99659.91;;;22.72;29.20
51081;BME280;37130;55.670;37.596;2023-06-14T16:21:17;99656.78;;;22.67;29.28
51081;BME280;37130;55.670;37.596;2023-06-14T16:23:45;99672.69;;;22.70;29.22
51081;BME280;37130;55.670;37.596;2023-06-14T16:26:12;99673.28;;;22.64;29.16
51081;BME280;37130;55.670;37.596;2023-06-14T16:28:40;99672.00;;;22.58;29.72
51081;BME280;37130;55.670;37.596;2023-06-14T16:31:12;99678.03;;;22.52;29.46
51081;BME280;37130;55.670;37.596;2023-06-14T16:33:41;99676.06;;;22.44;29.43
51081;BME280;37130;55.670;37.596;2023-06-14T16:36:09;99688.56;;;22.45;29.79
51081;BME280;37130;55.670;37.596;2023-06-14T16:38:36;99686.31;;;22.41;29.74
51081;BME280;37130;55.670;37.596;2023-06-14T16:41:04;99687.59;;;22.37;29.80
51081;BME280;37130;55.670;37.596;2023-06-14T16:43:31;99684.34;;;22.33;29.89
51081;BME280;37130;55.670;37.596;2023-06-14T16:45:59;99684.63;;;22.30;29.96
51081;BME280;37130;55.670;37.596;2023-06-14T16:48:27;99695.00;;;22.25;29.78
51081;BME280;37130;55.670;37.596;2023-06-14T16:50:54;99690.03;;;22.20;29.96
51081;BME280;37130;55.670;37.596;2023-06-14T16:53:22;99693.44;;;22.13;29.98
51081;BME280;37130;55.670;37.596;2023-06-14T16:55:49;99683.25;;;21.97;30.11
51081;BME280;37130;55.670;37.596;2023-06-14T16:58:17;99684.66;;;21.91;30.12
51081;BME280;37130;55.670;37.596;2023-06-14T17:00:44;99687.78;;;21.86;30.43
51081;BME280;37130;55.670;37.596;2023-06-14T17:03:12;99695.47;;;21.91;30.21
51081;BME280;37130;55.670;37.596;2023-06-14T17:05:53;99701.13;;;21.78;30.23
51081;BME280;37130;55.670;37.596;2023-06-14T17:08:21;99684.41;;;21.65;30.52
51081;BME280;37130;55.670;37.596;2023-06-14T17:10:49;99695.19;;;21.75;30.54
51081;BME280;37130;55.670;37.596;2023-06-14T17:13:16;99705.38;;;21.71;30.48
51081;BME280;37130;55.670;37.596;2023-06-14T17:15:45;99705.13;;;21.64;30.50
51081;BME280;37130;55.670;37.596;2023-06-14T17:18:12;99690.50;;;21.57;30.89
51081;BME280;37130;55.670;37.596;2023-06-14T17:20:39;99698.16;;;21.52;30.98
51081;BME280;37130;55.670;37.596;2023-06-14T17:23:07;99709.94;;;21.51;30.99
51081;BME280;37130;55.670;37.596;2023-06-14T17:25:34;99707.66;;;21.47;31.05
51081;BME280;37130;55.670;37.596;2023-06-14T17:28:02;99710.19;;;21.38;31.37
51081;BME280;37130;55.670;37.596;2023-06-14T17:30:31;99700.66;;;21.34;31.39
51081;BME280;37130;55.670;37.596;2023-06-14T17:32:58;99711.16;;;21.28;31.57
51081;BME280;37130;55.670;37.596;2023-06-14T17:35:26;99704.31;;;21.23;31.65
51081;BME280;37130;55.670;37.596;2023-06-14T17:37:53;99706.72;;;21.17;31.70
51081;BME280;37130;55.670;37.596;2023-06-14T17:40:21;99700.75;;;21.13;31.83
51081;BME280;37130;55.670;37.596;2023-06-14T17:42:48;99718.03;;;21.11;31.79
51081;BME280;37130;55.670;37.596;2023-06-14T17:45:15;99700.16;;;21.00;31.84
51081;BME280;37130;55.670;37.596;2023-06-14T17:47:43;99705.97;;;21.05;31.94
51081;BME280;37130;55.670;37.596;2023-06-14T17:50:10;99708.63;;;20.95;32.22
51081;BME280;37130;55.670;37.596;2023-06-14T17:52:38;99715.25;;;20.82;32.33
51081;BME280;37130;55.670;37.596;2023-06-14T17:55:05;99706.00;;;20.74;32.39
51081;BME280;37130;55.670;37.596;2023-06-14T17:57:33;99721.31;;;20.74;32.49
51081;BME280;37130;55.670;37.596;2023-06-14T18:00:01;99721.31;;;20.74;32.67
51081;BME280;37130;55.670;37.596;2023-06-14T18:02:37;99709.06;;;20.60;32.67
51081;BME280;37130;55.670;37.596;2023-06-14T18:05:05;99722.97;;;20.65;32.90
51081;BME280;37130;55.670;37.596;2023-06-14T18:07:33;99712.06;;;20.46;33.06
51081;BME280;37130;55.670;37.596;2023-06-14T18:10:00;99724.16;;;20.51;33.14
51081;BME280;37130;55.670;37.596;2023-06-14T18:12:29;99720.88;;;20.48;33.29
51081;BME280;37130;55.670;37.596;2023-06-14T18:14:56;99727.97;;;20.49;33.29
51081;BME280;37130;55.670;37.596;2023-06-14T18:17:23;99724.28;;;20.50;33.39
51081;BME280;37130;55.670;37.596;2023-06-14T18:19:52;99719.69;;;20.41;33.40
51081;BME280;37130;55.670;37.596;2023-06-14T18:22:19;99733.28;;;20.39;33.61
51081;BME280;37130;55.670;37.596;2023-06-14T18:24:47;99729.16;;;20.35;33.58
51081;BME280;37130;55.670;37.596;2023-06-14T18:27:15;99738.34;;;20.32;33.56
51081;BME280;37130;55.670;37.596;2023-06-14T18:29:42;99732.66;;;20.26;33.54
51081;BME280;37130;55.670;37.596;2023-06-14T18:32:09;99736.56;;;20.22;33.76
51081;BME280;37130;55.670;37.596;2023-06-14T18:34:37;99740.63;;;20.16;33.73
51081;BME280;37130;55.670;37.596;2023-06-14T18:37:05;99740.19;;;20.11;33.89
51081;BME280;37130;55.670;37.596;2023-06-14T18:39:32;99739.44;;;20.09;33.90
51081;BME280;37130;55.670;37.596;2023-06-14T18:42:01;99727.53;;;20.02;34.14
51081;BME280;37130;55.670;37.596;2023-06-14T18:44:28;99734.88;;;20.00;34.24
51081;BME280;37130;55.670;37.596;2023-06-14T18:46:55;99739.06;;;19.92;34.41
51081;BME280;37130;55.670;37.596;2023-06-14T18:49:23;99739.56;;;19.86;34.36
51081;BME280;37130;55.670;37.596;2023-06-14T18:51:50;99733.13;;;19.78;34.59
51081;BME280;37130;55.670;37.596;2023-06-14T18:54:17;99729.72;;;19.76;34.77
51081;BME280;37130;55.670;37.596;2023-06-14T18:56:45;99736.91;;;19.75;34.84
51081;BME280;37130;55.670;37.596;2023-06-14T18:59:13;99737.78;;;19.64;34.89
51081;BME280;37130;55.670;37.596;2023-06-14T19:01:40;99728.28;;;19.60;35.15
51081;BME280;37130;55.670;37.596;2023-06-14T19:04:08;99727.81;;;19.55;35.21
51081;BME280;37130;55.670;37.596;2023-06-14T19:06:35;99718.44;;;19.38;35.46
51081;BME280;37130;55.670;37.596;2023-06-14T19:09:03;99730.78;;;19.41;35.76
51081;BME280;37130;55.670;37.596;2023-06-14T19:11:31;99728.00;;;19.31;35.91
51081;BME280;37130;55.670;37.596;2023-06-14T19:13:59;99728.25;;;19.17;36.38
51081;BME280;37130;55.670;37.596;2023-06-14T19:16:26;99727.56;;;19.03;36.47
51081;BME280;37130;55.670;37.596;2023-06-14T19:18:53;99728.16;;;18.96;36.87
51081;BME280;37130;55.670;37.596;2023-06-14T19:21:21;99729.28;;;18.82;37.12
51081;BME280;37130;55.670;37.596;2023-06-14T19:23:49;99721.31;;;18.69;37.23
51081;BME280;37130;55.670;37.596;2023-06-14T19:26:16;99735.22;;;18.74;37.17
51081;BME280;37130;55.670;37.596;2023-06-14T19:28:44;99730.75;;;18.75;37.00
51081;BME280;37130;55.670;37.596;2023-06-14T19:31:11;99728.53;;;18.80;37.20
51081;BME280;37130;55.670;37.596;2023-06-14T19:33:39;99725.63;;;18.83;37.21
51081;BME280;37130;55.670;37.596;2023-06-14T19:36:06;99733.56;;;18.85;37.07
51081;BME280;37130;55.670;37.596;2023-06-14T19:38:34;99730.38;;;18.79;37.18
51081;BME280;37130;55.670;37.596;2023-06-14T19:41:02;99738.16;;;18.94;37.01
51081;BME280;37130;55.670;37.596;2023-06-14T19:43:29;99737.31;;;18.93;37.40